Time;durP1;ratioP1;P1;durP2;ratioP2;P2;SDS_P1;SDS_P2;PMS_P1;PMS_P2;Temp;Humidity;BMP_temperature;BMP_pressure;BME280_temperature;BME280_humidity;BME280_pressure;Samples;Min_cycle;Max_cycle;Signal;HPM_P1;HPM_P2
2024/01/10 00:00:10;;;;;;;35.28;23.08;;;-0.30;98.20;;;;;;4197186;28;20050;-59
2024/01/10 00:02:12;;;;;;;36.08;22.02;;;-0.20;98.00;;;;;;4179767;28;20417;-59
2024/01/10 00:04:16;;;;;;;41.95;23.98;;;-0.30;98.00;;;;;;4179635;28;20405;-59
2024/01/10 00:06:18;;;;;;;38.47;23.15;;;-0.30;98.10;;;;;;4197256;28;20040;-59
2024/01/10 00:08:22;;;;;;;37.55;24.38;;;-0.30;98.00;;;;;;4197375;28;20048;-58
2024/01/10 00:10:25;;;;;;;38.63;24.65;;;-0.40;97.80;;;;;;4179739;28;20095;-59
2024/01/10 00:12:27;;;;;;;38.55;23.25;;;-0.40;97.90;;;;;;4197380;28;20054;-59
2024/01/10 00:14:29;;;;;;;35.35;22.80;;;-0.30;98.20;;;;;;4196788;28;20044;-59
2024/01/10 00:16:31;;;;;;;37.42;23.05;;;-0.30;98.00;;;;;;4197279;28;20131;-59
2024/01/10 00:18:33;;;;;;;39.50;23.42;;;-0.40;98.00;;;;;;4197129;28;20072;-59
2024/01/10 00:20:35;;;;;;;38.15;24.20;;;-0.30;98.30;;;;;;4197336;28;20514;-59
2024/01/10 00:22:38;;;;;;;38.83;24.48;;;-0.30;98.20;;;;;;4197346;28;20045;-58
2024/01/10 00:24:41;;;;;;;41.10;23.17;;;-0.30;98.30;;;;;;4179366;28;20550;-59
2024/01/10 00:26:43;;;;;;;40.15;23.73;;;-0.30;98.20;;;;;;4197471;28;20384;-59
2024/01/10 00:28:46;;;;;;;36.40;22.95;;;-0.30;97.90;;;;;;4196879;28;20518;-59
2024/01/10 00:30:48;;;;;;;38.03;24.25;;;-0.30;98.10;;;;;;4179277;28;20408;-59
2024/01/10 00:32:50;;;;;;;38.50;23.90;;;-0.30;98.30;;;;;;4197028;28;20051;-59
2024/01/10 00:34:53;;;;;;;37.78;22.80;;;-0.30;98.20;;;;;;4197029;28;20044;-59
2024/01/10 00:36:55;;;;;;;42.08;23.77;;;-0.30;98.20;;;;;;4197160;28;20067;-59
2024/01/10 00:38:57;;;;;;;40.30;23.88;;;-0.30;98.50;;;;;;4179309;28;20124;-59
2024/01/10 00:41:00;;;;;;;39.15;23.73;;;-0.20;98.40;;;;;;4196995;28;20048;-59
2024/01/10 00:43:03;;;;;;;32.33;21.17;;;-0.20;98.10;;;;;;4196528;28;20072;-59
2024/01/10 00:45:06;;;;;;;34.60;23.15;;;-0.20;98.30;;;;;;4197098;28;20048;-61
2024/01/10 00:47:10;;;;;;;37.63;23.33;;;-0.20;98.20;;;;;;4197083;28;20487;-58
2024/01/10 00:49:13;;;;;;;37.95;24.42;;;-0.20;98.30;;;;;;4197103;28;20413;-58
2024/01/10 00:51:16;;;;;;;38.72;23.23;;;-0.20;98.20;;;;;;4196886;28;20041;-59
2024/01/10 00:53:18;;;;;;;37.58;23.42;;;-0.20;98.50;;;;;;4196962;28;20044;-59
2024/01/10 00:55:20;;;;;;;36.63;24.50;;;-0.10;98.30;;;;;;4196697;28;20048;-60
2024/01/10 00:57:24;;;;;;;34.53;23.65;;;-0.20;98.20;;;;;;4196438;28;20056;-59
2024/01/10 00:59:26;;;;;;;39.03;23.17;;;-0.20;98.10;;;;;;4197215;28;20479;-58
2024/01/10 01:01:28;;;;;;;35.45;21.25;;;-0.10;98.40;;;;;;4197080;28;20127;-59
2024/01/10 01:03:30;;;;;;;44.67;24.55;;;-0.10;98.50;;;;;;4197066;28;20128;-59
2024/01/10 01:05:32;;;;;;;34.70;22.98;;;0.00;98.10;;;;;;4197014;28;20065;-59
2024/01/10 01:07:35;;;;;;;37.80;22.95;;;0.00;98.10;;;;;;4196959;28;20045;-61
2024/01/10 01:09:37;;;;;;;34.10;23.05;;;0.00;98.20;;;;;;4196991;28;20048;-59
2024/01/10 01:11:39;;;;;;;37.97;23.15;;;0.00;98.40;;;;;;4196842;28;20094;-60
2024/01/10 01:13:43;;;;;;;37.50;23.35;;;0.00;98.20;;;;;;4196618;28;20139;-59
2024/01/10 01:15:45;;;;;;;34.65;23.27;;;0.10;98.30;;;;;;4196622;28;20052;-59
2024/01/10 01:17:47;;;;;;;34.35;22.55;;;0.00;98.00;;;;;;4179122;28;20101;-58
2024/01/10 01:19:49;;;;;;;34.33;22.02;;;0.10;98.10;;;;;;4197483;28;20045;-58
2024/01/10 01:21:51;;;;;;;36.65;22.88;;;0.10;98.00;;;;;;4198129;28;20045;-57
2024/01/10 01:23:54;;;;;;;35.08;22.35;;;0.10;98.00;;;;;;4197412;28;20051;-58
2024/01/10 01:25:56;;;;;;;37.30;22.38;;;0.10;97.90;;;;;;4197132;28;20844;-59
2024/01/10 01:27:58;;;;;;;40.30;23.45;;;0.10;98.30;;;;;;4197551;28;20072;-58
2024/01/10 01:30:02;;;;;;;35.15;23.73;;;0.00;97.90;;;;;;4197815;28;20473;-59
2024/01/10 01:32:04;;;;;;;36.47;23.52;;;0.00;97.90;;;;;;4198738;28;20044;-59
2024/01/10 01:34:06;;;;;;;36.35;23.58;;;0.00;97.90;;;;;;4198164;28;20044;-60
2024/01/10 01:36:08;;;;;;;35.10;22.63;;;0.00;98.20;;;;;;4197284;28;20053;-59
2024/01/10 01:38:10;;;;;;;37.15;22.30;;;0.10;98.20;;;;;;4197265;28;20494;-59
2024/01/10 01:40:13;;;;;;;34.38;22.98;;;0.10;98.00;;;;;;4197025;28;20052;-60
2024/01/10 01:42:15;;;;;;;38.83;24.25;;;0.10;98.10;;;;;;4196874;28;20150;-60
2024/01/10 01:44:18;;;;;;;43.72;24.95;;;0.00;97.80;;;;;;4197138;28;20532;-58
2024/01/10 01:46:22;;;;;;;35.65;24.33;;;0.00;97.90;;;;;;4196887;28;20049;-59
2024/01/10 01:48:25;;;;;;;36.88;23.20;;;0.00;98.00;;;;;;4196777;28;20046;-60
2024/01/10 01:50:28;;;;;;;31.53;18.83;;;0.00;98.20;;;;;;4196702;28;20098;-59
2024/01/10 01:52:31;;;;;;;35.40;22.75;;;0.00;98.20;;;;;;4198801;28;20044;-59
2024/01/10 01:54:33;;;;;;;32.92;21.85;;;0.00;98.30;;;;;;4199639;28;20087;-64
2024/01/10 01:56:36;;;;;;;39.50;25.05;;;-0.10;98.30;;;;;;4199110;28;20056;-59
2024/01/10 01:58:39;;;;;;;33.65;22.48;;;0.00;98.20;;;;;;4199496;28;20119;-59
2024/01/10 02:00:43;;;;;;;33.60;22.43;;;0.00;98.30;;;;;;4199443;28;20055;-59
2024/01/10 02:02:48;;;;;;;37.08;23.98;;;0.10;98.10;;;;;;4198909;28;20086;-59
2024/01/10 02:04:51;;;;;;;38.55;23.77;;;0.00;98.20;;;;;;4199494;28;20123;-58
2024/01/10 02:06:54;;;;;;;33.97;22.48;;;0.10;98.10;;;;;;4181747;28;20108;-59
2024/01/10 02:08:56;;;;;;;38.53;23.88;;;0.10;98.10;;;;;;4199308;28;20045;-58
2024/01/10 02:10:58;;;;;;;37.67;23.35;;;0.00;98.10;;;;;;4181119;28;20412;-59
2024/01/10 02:13:01;;;;;;;39.13;23.33;;;0.10;98.10;;;;;;4198970;28;20061;-59
2024/01/10 02:15:04;;;;;;;34.60;22.67;;;0.00;98.10;;;;;;4199064;28;20052;-59
2024/01/10 02:17:06;;;;;;;37.42;23.65;;;0.00;97.60;;;;;;4199112;28;20049;-59
2024/01/10 02:19:20;;;;;;;38.15;23.55;;;0.00;97.90;;;;;;4199140;28;20049;-59
2024/01/10 02:21:22;;;;;;;34.17;21.70;;;0.00;97.90;;;;;;4199357;28;20048;-59
2024/01/10 02:23:24;;;;;;;36.33;23.08;;;-0.10;97.80;;;;;;4199147;28;20159;-58
2024/01/10 02:25:28;;;;;;;37.10;23.38;;;0.00;98.00;;;;;;4198859;28;20052;-60
2024/01/10 02:27:31;;;;;;;36.67;23.02;;;0.00;97.90;;;;;;4199108;28;20044;-59
2024/01/10 02:29:34;;;;;;;35.22;22.70;;;-0.10;97.60;;;;;;4199082;28;20044;-59
2024/01/10 02:31:36;;;;;;;38.92;23.67;;;-0.10;98.00;;;;;;4198877;28;20047;-58
2024/01/10 02:33:38;;;;;;;37.47;24.23;;;-0.10;98.00;;;;;;4198821;28;20044;-59
2024/01/10 02:35:41;;;;;;;36.38;22.80;;;0.00;98.10;;;;;;4198643;28;20470;-56
2024/01/10 02:37:43;;;;;;;38.33;23.40;;;0.00;97.80;;;;;;4198671;28;20046;-58
2024/01/10 02:39:45;;;;;;;36.80;23.25;;;0.00;98.10;;;;;;4198582;28;20107;-59
2024/01/10 02:41:48;;;;;;;37.85;22.42;;;0.00;97.90;;;;;;4199015;28;20407;-58
2024/01/10 02:43:50;;;;;;;34.88;23.05;;;0.00;97.60;;;;;;4198766;28;20114;-59
2024/01/10 02:45:53;;;;;;;39.78;23.38;;;0.00;97.80;;;;;;4198891;28;20128;-58
2024/01/10 02:47:55;;;;;;;37.80;23.63;;;0.10;97.80;;;;;;4198648;28;20090;-59
2024/01/10 02:49:57;;;;;;;37.58;23.10;;;0.10;98.00;;;;;;4198455;28;20101;-59
2024/01/10 02:51:59;;;;;;;35.38;23.05;;;0.00;97.70;;;;;;4198826;28;20048;-60
2024/01/10 02:54:01;;;;;;;35.63;23.00;;;0.00;97.90;;;;;;4180615;28;20049;-59
2024/01/10 02:56:05;;;;;;;34.72;21.98;;;0.00;97.80;;;;;;4198368;28;20127;-59
2024/01/10 02:58:08;;;;;;;35.80;22.55;;;0.10;97.80;;;;;;4198401;28;20048;-59
2024/01/10 03:00:12;;;;;;;34.13;22.08;;;0.10;97.90;;;;;;4198393;28;20055;-61
2024/01/10 03:02:14;;;;;;;35.97;21.65;;;0.10;97.80;;;;;;4198472;28;20415;-59
2024/01/10 03:04:16;;;;;;;35.78;22.33;;;0.10;97.60;;;;;;4197642;28;20123;-62
2024/01/10 03:06:18;;;;;;;36.05;22.33;;;0.10;97.70;;;;;;4198451;28;20047;-59
2024/01/10 03:08:20;;;;;;;34.28;20.90;;;0.10;97.40;;;;;;4197890;28;20509;-59
2024/01/10 03:10:23;;;;;;;35.25;22.20;;;0.10;97.70;;;;;;4198177;28;20044;-59
2024/01/10 03:12:25;;;;;;;40.55;22.95;;;0.20;97.60;;;;;;4198278;28;20189;-60
2024/01/10 03:14:28;;;;;;;36.97;22.42;;;0.10;97.30;;;;;;4198306;28;20379;-59
2024/01/10 03:16:30;;;;;;;31.48;21.33;;;0.10;97.60;;;;;;4198246;28;20113;-60
2024/01/10 03:18:32;;;;;;;36.45;22.58;;;0.10;97.30;;;;;;4198418;28;20074;-59
2024/01/10 03:20:34;;;;;;;36.33;22.08;;;0.00;97.30;;;;;;4198219;28;20064;-58
2024/01/10 03:22:41;;;;;;;32.95;22.35;;;0.00;97.40;;;;;;4197990;28;20072;-60
2024/01/10 03:24:44;;;;;;;35.42;22.08;;;0.00;97.30;;;;;;4198182;28;20090;-59
2024/01/10 03:26:46;;;;;;;34.50;21.35;;;0.00;97.40;;;;;;4198115;28;20067;-59
2024/01/10 03:28:48;;;;;;;36.95;21.88;;;0.00;97.40;;;;;;4197859;28;20045;-60
2024/01/10 03:30:52;;;;;;;31.85;20.50;;;0.00;97.40;;;;;;4198034;28;20040;-59
2024/01/10 03:32:56;;;;;;;33.78;21.88;;;0.10;97.60;;;;;;4197989;28;20059;-59
2024/01/10 03:34:59;;;;;;;41.72;21.73;;;0.10;97.40;;;;;;4197826;28;20047;-59
2024/01/10 03:37:01;;;;;;;35.88;21.90;;;0.20;97.20;;;;;;4179976;28;20045;-59
2024/01/10 03:39:04;;;;;;;32.97;21.70;;;0.20;97.10;;;;;;4197947;28;20071;-59
2024/01/10 03:41:06;;;;;;;38.72;22.02;;;0.10;97.20;;;;;;4198046;28;20123;-59
2024/01/10 03:43:10;;;;;;;34.28;21.10;;;0.20;97.10;;;;;;4197873;28;20540;-59
2024/01/10 03:45:12;;;;;;;33.55;20.17;;;0.20;97.10;;;;;;4197902;28;20041;-59
2024/01/10 03:47:15;;;;;;;40.95;23.00;;;0.20;96.70;;;;;;4197677;28;20122;-59
2024/01/10 03:49:17;;;;;;;34.95;21.88;;;0.10;96.70;;;;;;4197601;28;20127;-59
2024/01/10 03:51:20;;;;;;;36.83;21.52;;;0.10;96.80;;;;;;4197435;28;20040;-59
2024/01/10 03:53:22;;;;;;;33.83;21.63;;;0.10;97.10;;;;;;4197725;28;20051;-59
2024/01/10 03:55:24;;;;;;;36.05;22.17;;;0.10;97.10;;;;;;4197457;28;20067;-59
2024/01/10 03:57:26;;;;;;;34.25;22.20;;;0.10;97.20;;;;;;4197375;28;20044;-60
2024/01/10 03:59:28;;;;;;;33.42;21.45;;;0.20;97.00;;;;;;4197784;28;20045;-60
2024/01/10 04:01:30;;;;;;;33.97;21.88;;;0.10;96.80;;;;;;4197997;28;20135;-59
2024/01/10 04:03:35;;;;;;;35.03;21.38;;;0.10;96.80;;;;;;4198051;28;20127;-59
2024/01/10 04:05:37;;;;;;;28.15;16.95;;;0.20;97.10;;;;;;4198718;28;20040;-60
2024/01/10 04:07:41;;;;;;;33.20;21.05;;;0.10;97.00;;;;;;4198786;28;20479;-59
2024/01/10 04:09:44;;;;;;;35.53;21.08;;;0.20;97.10;;;;;;4199035;28;20091;-59
2024/01/10 04:11:46;;;;;;;32.63;20.55;;;0.30;96.70;;;;;;4199437;28;20067;-60
2024/01/10 04:13:48;;;;;;;35.08;21.80;;;0.30;96.70;;;;;;4180474;28;20052;-59
2024/01/10 04:15:50;;;;;;;30.95;19.25;;;0.30;96.40;;;;;;4179782;28;20049;-59
2024/01/10 04:17:52;;;;;;;32.65;21.42;;;0.30;96.90;;;;;;4197682;28;20128;-59
2024/01/10 04:19:56;;;;;;;34.97;22.25;;;0.30;96.50;;;;;;4197265;28;20442;-58
2024/01/10 04:21:58;;;;;;;36.97;22.73;;;0.30;96.50;;;;;;4179830;28;20052;-59
2024/01/10 04:24:00;;;;;;;33.55;21.30;;;0.30;96.60;;;;;;4197592;28;20078;-59
2024/01/10 04:26:03;;;;;;;34.60;21.92;;;0.30;96.30;;;;;;4197266;28;20086;-60
2024/01/10 04:28:05;;;;;;;39.20;22.80;;;0.30;96.40;;;;;;4197285;28;20113;-61
2024/01/10 04:30:08;;;;;;;37.28;22.20;;;0.40;96.80;;;;;;4197555;28;20080;-59
2024/01/10 04:32:11;;;;;;;30.98;19.48;;;0.50;96.40;;;;;;4197578;28;20136;-59
2024/01/10 04:34:13;;;;;;;31.05;19.60;;;0.40;97.30;;;;;;4197467;28;20050;-59
2024/01/10 04:36:16;;;;;;;35.20;23.00;;;0.50;97.00;;;;;;4196907;28;20051;-59
2024/01/10 04:38:18;;;;;;;33.88;22.05;;;0.40;96.40;;;;;;4197154;28;20109;-59
2024/01/10 04:40:21;;;;;;;36.25;22.35;;;0.40;96.50;;;;;;4197399;28;20051;-59
2024/01/10 04:42:25;;;;;;;34.20;21.25;;;0.40;96.30;;;;;;4197486;28;20052;-60
2024/01/10 04:44:27;;;;;;;33.42;21.40;;;0.40;96.30;;;;;;4179653;28;20045;-59
2024/01/10 04:46:29;;;;;;;36.60;21.55;;;0.40;96.60;;;;;;4197277;28;20148;-59
2024/01/10 04:48:31;;;;;;;37.22;21.80;;;0.60;97.20;;;;;;4197101;28;20045;-59
2024/01/10 04:50:35;;;;;;;40.30;22.23;;;0.50;96.50;;;;;;4196949;28;20048;-59
2024/01/10 04:52:38;;;;;;;41.83;20.77;;;0.50;96.40;;;;;;4197247;28;20045;-60
2024/01/10 04:54:40;;;;;;;35.97;20.58;;;0.50;96.50;;;;;;4197170;28;20048;-60
2024/01/10 04:56:43;;;;;;;34.90;22.23;;;0.60;96.50;;;;;;4196846;28;20047;-59
2024/01/10 04:58:46;;;;;;;38.30;21.92;;;0.60;96.20;;;;;;4197386;28;20080;-64
2024/01/10 05:00:48;;;;;;;33.60;20.10;;;0.60;96.30;;;;;;4197110;28;20644;-59
2024/01/10 05:02:50;;;;;;;29.98;20.15;;;0.60;96.40;;;;;;4197162;28;20552;-59
2024/01/10 05:04:55;;;;;;;43.65;21.60;;;0.70;97.20;;;;;;4196770;28;20554;-59
2024/01/10 05:06:58;;;;;;;41.22;22.10;;;0.70;96.90;;;;;;4197032;28;20047;-60
2024/01/10 05:09:01;;;;;;;37.72;21.60;;;0.80;96.60;;;;;;4197175;28;20411;-59
2024/01/10 05:11:04;;;;;;;36.67;22.20;;;0.80;96.40;;;;;;4197020;28;20049;-59
2024/01/10 05:13:06;;;;;;;32.50;20.38;;;0.70;96.00;;;;;;4196692;28;20052;-59
2024/01/10 05:15:09;;;;;;;35.08;19.83;;;0.70;96.00;;;;;;4197226;28;20407;-59
2024/01/10 05:17:11;;;;;;;36.45;22.30;;;0.60;96.10;;;;;;4196898;28;20403;-60
2024/01/10 05:19:14;;;;;;;37.67;23.10;;;0.60;96.20;;;;;;4196715;28;20114;-59
2024/01/10 05:21:16;;;;;;;33.40;21.17;;;0.50;96.00;;;;;;4196885;28;20048;-59
2024/01/10 05:23:18;;;;;;;33.97;20.83;;;0.50;96.20;;;;;;4197015;28;20090;-60
2024/01/10 05:25:22;;;;;;;34.78;20.67;;;0.30;96.20;;;;;;4196876;28;20045;-60
2024/01/10 05:27:24;;;;;;;36.67;22.33;;;0.40;96.50;;;;;;4181364;28;20045;-59
2024/01/10 05:29:27;;;;;;;36.42;21.05;;;0.50;96.30;;;;;;4199993;28;20040;-60
2024/01/10 05:31:29;;;;;;;46.63;22.48;;;0.50;96.30;;;;;;4199922;28;20056;-59
2024/01/10 05:33:31;;;;;;;72.00;23.95;;;0.50;96.40;;;;;;4199506;28;20046;-59
2024/01/10 05:35:35;;;;;;;36.30;21.38;;;0.50;96.20;;;;;;4199879;28;20044;-60
2024/01/10 05:37:37;;;;;;;39.95;22.27;;;0.50;96.20;;;;;;4199783;28;20070;-60
2024/01/10 05:39:39;;;;;;;33.85;20.67;;;0.50;96.20;;;;;;4200055;28;20453;-59
2024/01/10 05:41:43;;;;;;;39.13;21.58;;;0.40;96.00;;;;;;4199622;28;20048;-59
2024/01/10 05:43:47;;;;;;;38.42;20.92;;;0.50;96.40;;;;;;4199795;28;20050;-60
2024/01/10 05:45:50;;;;;;;42.88;21.25;;;0.50;96.00;;;;;;4199909;28;20471;-59
2024/01/10 05:47:52;;;;;;;36.15;20.55;;;0.60;95.70;;;;;;4199294;28;20055;-59
2024/01/10 05:49:54;;;;;;;33.90;19.58;;;0.50;95.70;;;;;;4200017;28;20071;-59
2024/01/10 05:51:57;;;;;;;30.77;18.95;;;0.40;95.50;;;;;;4199859;28;20048;-59
2024/01/10 05:53:59;;;;;;;33.55;20.00;;;0.50;95.40;;;;;;4199518;28;20055;-59
2024/01/10 05:56:01;;;;;;;34.50;20.77;;;0.50;95.40;;;;;;4199605;28;20094;-59
2024/01/10 05:58:05;;;;;;;37.30;19.67;;;0.50;95.40;;;;;;4199612;28;20048;-59
2024/01/10 06:00:09;;;;;;;34.40;20.27;;;0.60;95.20;;;;;;4199519;28;20041;-59
2024/01/10 06:02:15;;;;;;;34.05;19.27;;;0.50;95.60;;;;;;4199220;28;20045;-59
2024/01/10 06:04:18;;;;;;;35.22;19.10;;;0.50;95.40;;;;;;4199454;28;20072;-59
2024/01/10 06:06:20;;;;;;;31.98;18.65;;;0.60;94.90;;;;;;4199527;28;20091;-59
2024/01/10 06:08:25;;;;;;;31.20;17.83;;;0.50;94.60;;;;;;4199547;28;20523;-60
2024/01/10 06:10:29;;;;;;;32.22;18.63;;;0.50;95.20;;;;;;4181636;28;20101;-59
2024/01/10 06:12:31;;;;;;;30.08;18.13;;;0.60;95.30;;;;;;4199292;28;20056;-59
2024/01/10 06:14:35;;;;;;;32.10;18.92;;;0.60;94.80;;;;;;4199438;28;20425;-59
2024/01/10 06:16:38;;;;;;;32.25;18.42;;;0.60;94.70;;;;;;4198995;28;20476;-59
2024/01/10 06:18:40;;;;;;;31.73;18.67;;;0.60;94.80;;;;;;4199683;28;20048;-65
2024/01/10 06:20:42;;;;;;;28.40;17.95;;;0.60;94.70;;;;;;4199524;28;20136;-60
2024/01/10 06:22:46;;;;;;;32.45;18.80;;;0.60;94.80;;;;;;4181720;28;20073;-62
2024/01/10 06:24:48;;;;;;;31.03;17.83;;;0.50;94.60;;;;;;4199405;28;20446;-59
2024/01/10 06:26:50;;;;;;;27.15;16.50;;;0.60;94.80;;;;;;4181202;28;20456;-58
2024/01/10 06:28:52;;;;;;;30.15;18.13;;;0.60;95.30;;;;;;4199122;28;20045;-59
2024/01/10 06:30:56;;;;;;;30.25;18.50;;;0.60;95.20;;;;;;4198622;28;20419;-59
2024/01/10 06:32:58;;;;;;;30.48;18.00;;;0.60;94.50;;;;;;4198807;28;20098;-60
2024/01/10 06:35:01;;;;;;;29.15;17.80;;;0.60;94.70;;;;;;4199548;28;20078;-59
2024/01/10 06:37:04;;;;;;;28.88;17.83;;;0.60;94.70;;;;;;4200219;28;20051;-60
2024/01/10 06:39:06;;;;;;;29.23;18.42;;;0.50;94.50;;;;;;4200996;28;20072;-58
2024/01/10 06:41:08;;;;;;;30.73;18.67;;;0.40;94.50;;;;;;4200100;28;20079;-59
2024/01/10 06:43:11;;;;;;;27.92;16.58;;;0.40;94.70;;;;;;4181931;28;20052;-59
2024/01/10 06:45:14;;;;;;;32.05;18.33;;;0.30;94.70;;;;;;4199441;28;20055;-60
2024/01/10 06:47:17;;;;;;;27.85;17.73;;;0.40;94.90;;;;;;4199791;28;20045;-60
2024/01/10 06:49:19;;;;;;;32.55;17.80;;;0.40;95.40;;;;;;4199547;28;20091;-60
2024/01/10 06:51:21;;;;;;;27.17;16.85;;;0.40;95.10;;;;;;4199048;28;20048;-59
2024/01/10 06:53:26;;;;;;;25.88;17.38;;;0.40;95.20;;;;;;4199102;28;20103;-60
2024/01/10 06:55:29;;;;;;;28.13;17.13;;;0.50;95.40;;;;;;4199364;28;20072;-59
2024/01/10 06:57:31;;;;;;;31.63;17.55;;;0.50;95.10;;;;;;4181374;28;20120;-60
2024/01/10 06:59:33;;;;;;;31.45;16.98;;;0.50;95.00;;;;;;4198544;28;20051;-60
2024/01/10 07:01:35;;;;;;;30.10;16.92;;;0.50;94.70;;;;;;4198752;28;20043;-59
2024/01/10 07:03:39;;;;;;;27.35;16.30;;;0.40;94.90;;;;;;4198586;28;20070;-59
2024/01/10 07:05:44;;;;;;;26.70;15.60;;;0.40;94.90;;;;;;4198604;28;20086;-59
2024/01/10 07:07:46;;;;;;;23.15;14.63;;;0.40;95.60;;;;;;4198460;28;20040;-59
2024/01/10 07:09:48;;;;;;;24.95;15.85;;;0.40;95.10;;;;;;4198229;28;20045;-59
2024/01/10 07:11:50;;;;;;;30.08;16.85;;;0.40;95.00;;;;;;4198229;28;20135;-59
2024/01/10 07:13:52;;;;;;;24.25;15.90;;;0.50;95.20;;;;;;4197858;28;20139;-57
2024/01/10 07:15:57;;;;;;;26.67;16.15;;;0.50;95.00;;;;;;4198101;28;20047;-58
2024/01/10 07:17:59;;;;;;;28.02;15.98;;;0.40;95.00;;;;;;4180270;28;20522;-59
2024/01/10 07:20:04;;;;;;;25.95;15.75;;;0.50;95.20;;;;;;4198406;28;20564;-59
2024/01/10 07:22:08;;;;;;;28.85;16.02;;;0.50;95.30;;;;;;4197966;28;20051;-59
2024/01/10 07:24:11;;;;;;;24.13;12.25;;;0.40;95.00;;;;;;4198326;28;20048;-59
2024/01/10 07:26:16;;;;;;;27.45;15.57;;;0.50;95.00;;;;;;4198016;28;20124;-59
2024/01/10 07:28:19;;;;;;;;;;;0.50;94.80;;;;;;4198492;28;20094;-59
2024/01/10 07:30:22;;;;;;;30.63;16.52;;;0.50;94.40;;;;;;4198258;28;20363;-59
2024/01/10 07:32:25;;;;;;;26.98;16.30;;;0.50;94.30;;;;;;4197806;28;20044;-59
2024/01/10 07:34:27;;;;;;;25.20;15.02;;;0.50;94.00;;;;;;4198230;28;20048;-60
2024/01/10 07:36:33;;;;;;;25.02;15.73;;;0.50;94.30;;;;;;4198069;28;20055;-58
2024/01/10 07:38:35;;;;;;;24.48;15.32;;;0.60;94.10;;;;;;4197903;28;20049;-59
2024/01/10 07:40:37;;;;;;;27.75;15.25;;;0.60;93.50;;;;;;4198003;28;20079;-60
2024/01/10 07:42:39;;;;;;;25.85;16.35;;;0.70;93.50;;;;;;4197918;28;20567;-58
2024/01/10 07:44:41;;;;;;;28.73;16.23;;;0.70;93.60;;;;;;4197523;28;20076;-58
2024/01/10 07:46:47;;;;;;;28.35;15.75;;;0.70;93.10;;;;;;4197679;28;20040;-60
2024/01/10 07:48:49;;;;;;;31.05;17.42;;;0.70;93.10;;;;;;4179653;28;20045;-60
2024/01/10 07:50:51;;;;;;;30.17;16.85;;;0.60;93.20;;;;;;4197881;28;20056;-59
2024/01/10 07:52:57;;;;;;;26.85;15.48;;;0.60;93.40;;;;;;4197780;28;20052;-59
2024/01/10 07:55:00;;;;;;;28.35;15.85;;;0.70;93.80;;;;;;4197994;28;20135;-59
2024/01/10 07:57:03;;;;;;;22.75;15.15;;;0.70;93.80;;;;;;4197619;28;20052;-59
2024/01/10 07:59:06;;;;;;;25.25;15.93;;;0.70;94.10;;;;;;4197170;28;20055;-60
2024/01/10 08:01:10;;;;;;;25.38;16.15;;;0.90;95.10;;;;;;4197750;28;20049;-59
2024/01/10 08:03:13;;;;;;;31.17;16.73;;;0.80;94.30;;;;;;4197812;28;20466;-59
2024/01/10 08:05:15;;;;;;;26.48;16.55;;;0.70;94.40;;;;;;4197556;28;20136;-60
2024/01/10 08:07:17;;;;;;;34.38;17.92;;;0.70;94.60;;;;;;4197721;28;20044;-59
2024/01/10 08:09:21;;;;;;;26.77;15.65;;;0.70;94.20;;;;;;4197757;28;20048;-59
2024/01/10 08:11:24;;;;;;;29.23;16.60;;;0.70;94.50;;;;;;4197673;28;20045;-59
2024/01/10 08:13:27;;;;;;;19.70;13.23;;;0.60;94.60;;;;;;4196961;28;20052;-60
2024/01/10 08:15:30;;;;;;;32.08;16.15;;;0.70;94.70;;;;;;4197491;28;20460;-59
2024/01/10 08:17:32;;;;;;;31.67;18.15;;;0.80;94.50;;;;;;4197411;28;20071;-59
2024/01/10 08:19:35;;;;;;;29.85;16.95;;;0.70;93.80;;;;;;4197496;28;20048;-59
2024/01/10 08:21:38;;;;;;;35.97;18.00;;;0.70;94.10;;;;;;4179828;28;20067;-60
2024/01/10 08:23:40;;;;;;;26.85;15.10;;;0.60;94.00;;;;;;4197383;28;20047;-59
2024/01/10 08:25:44;;;;;;;33.42;16.63;;;0.60;94.30;;;;;;4197610;28;20066;-59
2024/01/10 08:27:46;;;;;;;29.35;16.63;;;0.70;94.20;;;;;;4197212;28;20501;-58
2024/01/10 08:29:48;;;;;;;26.48;15.68;;;0.70;94.20;;;;;;4197238;28;20048;-59
2024/01/10 08:31:50;;;;;;;28.63;16.00;;;0.70;95.10;;;;;;4197116;28;20097;-60
2024/01/10 08:33:53;;;;;;;24.48;15.65;;;0.80;94.70;;;;;;4180157;28;20112;-65
2024/01/10 08:35:56;;;;;;;27.25;16.88;;;0.80;94.70;;;;;;4198208;28;20049;-63
2024/01/10 08:37:58;;;;;;;31.75;16.15;;;0.70;94.80;;;;;;4198383;28;20045;-64
2024/01/10 08:40:06;;;;;;;26.48;15.70;;;0.70;94.70;;;;;;4199273;28;20506;-63
2024/01/10 08:42:09;;;;;;;27.85;15.63;;;0.70;94.40;;;;;;4199117;28;20041;-64
2024/01/10 08:44:11;;;;;;;28.30;15.98;;;0.70;94.70;;;;;;4199297;28;20082;-63
2024/01/10 08:46:14;;;;;;;28.88;15.65;;;0.80;94.90;;;;;;4198335;28;20052;-64
2024/01/10 08:48:17;;;;;;;30.77;15.63;;;0.80;94.60;;;;;;4197990;28;20079;-64
2024/01/10 08:50:19;;;;;;;26.67;15.60;;;0.80;95.20;;;;;;4198011;28;20467;-64
2024/01/10 08:52:21;;;;;;;31.05;15.75;;;0.70;94.90;;;;;;4197871;28;20044;-64
2024/01/10 08:54:25;;;;;;;29.13;16.02;;;0.70;94.80;;;;;;4198121;28;20044;-65
2024/01/10 08:56:27;;;;;;;33.75;16.13;;;0.70;95.20;;;;;;4198013;28;20090;-62
2024/01/10 08:58:31;;;;;;;26.50;15.25;;;0.80;95.30;;;;;;4181158;28;20076;-67
2024/01/10 09:00:33;;;;;;;27.92;14.93;;;0.80;95.40;;;;;;4194078;28;20527;-63
2024/01/10 09:02:36;;;;;;;25.20;15.10;;;0.80;95.20;;;;;;4199574;28;20079;-63
2024/01/10 09:04:39;;;;;;;24.80;14.18;;;0.70;94.80;;;;;;4202458;28;20045;-63
2024/01/10 09:06:41;;;;;;;40.10;16.92;;;0.60;95.30;;;;;;4204213;28;20044;-63
2024/01/10 09:08:43;;;;;;;40.47;16.80;;;0.80;95.90;;;;;;4205163;28;20041;-62
2024/01/10 09:10:46;;;;;;;52.13;16.85;;;1.00;95.80;;;;;;4204444;28;20044;-61
2024/01/10 09:12:48;;;;;;;86.07;15.43;;;1.10;94.90;;;;;;4204771;28;20179;-62
2024/01/10 09:14:52;;;;;;;56.00;16.52;;;1.50;96.20;;;;;;4202035;28;20114;-62
2024/01/10 09:16:54;;;;;;;29.90;15.82;;;1.60;95.70;;;;;;4198833;28;20056;-63
2024/01/10 09:18:59;;;;;;;34.58;15.50;;;1.70;94.60;;;;;;4197608;28;20044;-63
2024/01/10 09:21:04;;;;;;;41.05;13.63;;;1.60;93.70;;;;;;4176082;28;20076;-63
2024/01/10 09:23:06;;;;;;;27.50;12.07;;;1.60;95.00;;;;;;4199417;28;20045;-63
2024/01/10 09:25:09;;;;;;;29.38;14.23;;;1.80;94.30;;;;;;4200942;28;20049;-64
2024/01/10 09:27:11;;;;;;;31.20;15.05;;;1.80;94.00;;;;;;4199202;28;20068;-62
2024/01/10 09:29:14;;;;;;;32.10;14.25;;;1.80;93.60;;;;;;4201180;28;20060;-65
2024/01/10 09:31:18;;;;;;;25.27;14.98;;;1.80;94.50;;;;;;4185742;28;20052;-67
2024/01/10 09:33:21;;;;;;;24.60;10.77;;;1.90;94.00;;;;;;4202903;28;20454;-65
2024/01/10 09:35:24;;;;;;;32.78;14.90;;;2.00;93.90;;;;;;4201903;28;20051;-68
2024/01/10 09:37:27;;;;;;;31.93;16.33;;;2.00;93.60;;;;;;4202177;28;20131;-65
2024/01/10 09:39:30;;;;;;;46.55;15.95;;;1.80;93.10;;;;;;4202832;28;20048;-65
2024/01/10 09:41:38;;;;;;;26.05;15.07;;;1.90;93.90;;;;;;4202490;28;20055;-65
2024/01/10 09:43:40;;;;;;;25.27;15.50;;;1.80;92.80;;;;;;4202304;28;20054;-65
2024/01/10 09:45:46;;;;;;;23.48;14.07;;;1.70;92.90;;;;;;4203168;28;20040;-65
2024/01/10 09:47:54;;;;;;;28.35;14.10;;;1.50;92.90;;;;;;4199993;28;20450;-65
2024/01/10 09:49:57;;;;;;;42.17;15.70;;;1.60;93.30;;;;;;4201113;28;20051;-67
2024/01/10 09:52:04;;;;;;;28.30;14.43;;;1.60;93.10;;;;;;4182824;28;20096;-65
2024/01/10 09:54:07;;;;;;;26.27;14.80;;;1.60;93.30;;;;;;4201043;28;20052;-65
2024/01/10 09:56:10;;;;;;;24.48;13.82;;;1.60;93.50;;;;;;4201642;28;20053;-63
2024/01/10 09:58:12;;;;;;;28.42;14.80;;;1.60;93.30;;;;;;4197298;28;20136;-65
2024/01/10 10:00:16;;;;;;;29.63;15.63;;;1.60;93.50;;;;;;4200006;28;20072;-66
2024/01/10 10:02:20;;;;;;;23.88;14.38;;;1.60;93.50;;;;;;4198932;28;20467;-65
2024/01/10 10:04:27;;;;;;;25.77;15.20;;;1.60;92.60;;;;;;4188150;28;20045;-65
2024/01/10 10:06:29;;;;;;;22.63;14.45;;;1.40;92.70;;;;;;4184935;28;20076;-65
2024/01/10 10:08:31;;;;;;;24.02;14.27;;;1.30;93.00;;;;;;4197329;28;20051;-65
2024/01/10 10:10:33;;;;;;;30.83;16.15;;;1.30;92.70;;;;;;4181792;28;20480;-65
2024/01/10 10:12:42;;;;;;;23.55;14.18;;;1.30;92.80;;;;;;4197822;28;20041;-69
2024/01/10 10:14:44;;;;;;;22.75;14.35;;;1.30;92.80;;;;;;4197891;28;20205;-68
2024/01/10 10:16:46;;;;;;;24.02;14.93;;;1.20;92.80;;;;;;4196599;28;20145;-66
2024/01/10 10:18:50;;;;;;;24.30;14.30;;;1.20;93.00;;;;;;4179612;28;20048;-64
2024/01/10 10:21:13;;;;;;;26.35;14.07;;;1.20;92.80;;;;;;4197405;28;20037;-65
2024/01/10 10:23:19;;;;;;;21.15;13.52;;;1.20;93.10;;;;;;4179886;28;20033;-68
2024/01/10 10:25:21;;;;;;;25.42;14.95;;;1.20;93.20;;;;;;4184663;28;20132;-69
2024/01/10 10:27:24;;;;;;;31.02;15.07;;;1.20;93.10;;;;;;4193587;28;20480;-69
2024/01/10 10:29:26;;;;;;;30.05;15.25;;;1.30;93.40;;;;;;4199222;28;20470;-67